createdAt,value
2023-01-18T00:01:20.026Z,-0.21
2023-01-18T00:03:48.026Z,-0.20
2023-01-18T00:06:17.598Z,-0.18
2023-01-18T00:08:45.256Z,-0.11
2023-01-18T00:11:15.896Z,-0.07
2023-01-18T00:13:44.354Z,-0.87
2023-01-18T00:16:17.069Z,-1.16
2023-01-18T00:18:54.693Z,-0.90
2023-01-18T00:21:24.164Z,-0.55
2023-01-18T00:23:51.781Z,-0.87
2023-01-18T00:26:19.529Z,-0.64
2023-01-18T00:28:47.223Z,-0.42
2023-01-18T00:31:19.619Z,-0.32
2023-01-18T00:33:50.211Z,-0.21
2023-01-18T00:36:18.437Z,-0.18
2023-01-18T00:38:54.067Z,-0.29
2023-01-18T00:41:22.780Z,-1.68
2023-01-18T00:43:51.774Z,-1.31
2023-01-18T00:46:25.712Z,-1.98
2023-01-18T00:48:55.160Z,-1.41
2023-01-18T00:51:25.357Z,-0.97
2023-01-18T00:53:52.955Z,-0.68
2023-01-18T00:56:24.621Z,-0.82
2023-01-18T00:58:52.268Z,-0.68
2023-01-18T01:01:20.151Z,-0.48
2023-01-18T01:04:06.205Z,-0.91
2023-01-18T01:06:44.838Z,-0.95
2023-01-18T01:09:25.961Z,-0.60
2023-01-18T01:12:12.924Z,-0.61
2023-01-18T01:15:05.491Z,-0.61
2023-01-18T01:17:58.201Z,-0.65
2023-01-18T01:20:45.273Z,-0.79
2023-01-18T01:23:40.841Z,-0.46
2023-01-18T01:26:11.682Z,-0.50
2023-01-18T01:28:42.060Z,-0.33
2023-01-18T01:31:15.058Z,-0.25
2023-01-18T01:33:44.849Z,-0.39
2023-01-18T01:36:19.705Z,-1.36
2023-01-18T01:38:47.539Z,-0.97
2023-01-18T01:41:21.848Z,-0.61
2023-01-18T01:43:55.981Z,-0.69
2023-01-18T01:46:50.719Z,-0.50
2023-01-18T01:49:29.830Z,-0.31
2023-01-18T01:52:11.167Z,-0.37
2023-01-18T01:55:13.729Z,-0.18
2023-01-18T01:57:52.868Z,-0.09
2023-01-18T02:00:25.792Z,0.00
2023-01-18T02:03:12.650Z,-0.02
2023-01-18T02:05:45.366Z,-0.32
2023-01-18T02:08:22.458Z,-1.60
2023-01-18T02:10:52.162Z,-2.84
2023-01-18T02:13:22.855Z,-1.58
2023-01-18T02:16:02.825Z,-0.80
2023-01-18T02:18:51.922Z,-0.96
2023-01-18T02:21:33.707Z,-0.62
2023-01-18T02:24:32.295Z,-0.36
2023-01-18T02:27:21.381Z,-0.22
2023-01-18T02:30:01.398Z,-0.51
2023-01-18T02:32:47.462Z,-0.78
2023-01-18T02:35:45.282Z,-0.73
2023-01-18T02:38:21.867Z,-0.43
2023-01-18T02:41:14.399Z,-0.15
2023-01-18T02:44:03.699Z,-0.10
2023-01-18T02:46:35.997Z,0.02
2023-01-18T02:49:23.047Z,-0.21
2023-01-18T02:52:02.976Z,0.07
2023-01-18T02:54:33.567Z,-0.30
2023-01-18T02:57:04.500Z,-0.56
2023-01-18T02:59:39.177Z,-0.58
2023-01-18T03:02:10.389Z,-2.40
2023-01-18T03:04:54.345Z,-3.49
2023-01-18T03:07:40.455Z,-4.24
2023-01-18T03:10:11.552Z,-4.05
2023-01-18T03:13:00.067Z,-2.78
2023-01-18T03:15:55.272Z,-0.97
2023-01-18T03:19:01.838Z,-0.53
2023-01-18T03:21:51.451Z,-0.22
2023-01-18T03:24:22.956Z,-0.15
2023-01-18T03:26:55.906Z,-0.22
2023-01-18T03:29:42.963Z,-0.38
2023-01-18T03:32:36.242Z,-0.43
2023-01-18T03:35:11.853Z,-0.63
2023-01-18T03:37:44.657Z,-0.41
2023-01-18T03:40:23.645Z,-0.06
2023-01-18T03:43:10.977Z,0.03
2023-01-18T03:45:49.857Z,0.05
2023-01-18T03:48:17.789Z,0.06
2023-01-18T03:51:01.355Z,0.14
2023-01-18T03:54:11.234Z,-0.35
2023-01-18T03:56:52.195Z,-1.43
2023-01-18T03:59:21.567Z,-3.51
2023-01-18T04:01:49.591Z,-3.28
2023-01-18T04:04:17.375Z,-3.37
2023-01-18T04:06:44.932Z,-2.03
2023-01-18T04:09:12.612Z,-2.06
2023-01-18T04:11:40.328Z,-2.19
2023-01-18T04:14:07.936Z,-1.87
2023-01-18T04:16:35.579Z,-1.26
2023-01-18T04:19:03.281Z,-0.29
2023-01-18T04:21:33.075Z,-0.25
2023-01-18T04:24:01.197Z,0.03
2023-01-18T04:26:29.906Z,-0.49
2023-01-18T04:28:57.483Z,-1.67
2023-01-18T04:31:25.181Z,-0.53
2023-01-18T04:33:52.937Z,-0.27
2023-01-18T04:36:22.265Z,-0.06
2023-01-18T04:38:54.515Z,-0.02
2023-01-18T04:41:23.171Z,-0.62
2023-01-18T04:43:50.867Z,-0.47
2023-01-18T04:46:18.533Z,-0.25
2023-01-18T04:48:51.587Z,0.19
2023-01-18T04:51:20.419Z,0.28
2023-01-18T04:53:48.113Z,0.26
2023-01-18T04:56:17.143Z,0.21
2023-01-18T04:58:45.275Z,0.28
2023-01-18T05:01:14.069Z,0.37
2023-01-18T05:03:41.790Z,0.41
2023-01-18T05:06:12.153Z,0.48
2023-01-18T05:08:43.063Z,0.42
2023-01-18T05:11:20.246Z,-0.53
2023-01-18T05:13:47.875Z,-0.44
2023-01-18T05:16:19.970Z,0.19
2023-01-18T05:18:48.236Z,0.48
2023-01-18T05:21:15.910Z,0.65
2023-01-18T05:23:43.817Z,0.26
2023-01-18T05:26:18.085Z,0.39
2023-01-18T05:28:47.949Z,0.55
2023-01-18T05:31:18.741Z,0.61
2023-01-18T05:33:46.439Z,0.39
2023-01-18T05:36:14.035Z,0.44
2023-01-18T05:38:41.702Z,0.57
2023-01-18T05:41:09.559Z,0.42
2023-01-18T05:43:38.246Z,0.12
2023-01-18T05:46:06.196Z,-0.24
2023-01-18T05:48:33.911Z,0.01
2023-01-18T05:51:09.021Z,-0.28
2023-01-18T05:53:37.402Z,-0.11
2023-01-18T05:56:06.926Z,-0.56
2023-01-18T05:58:35.362Z,-0.31
2023-01-18T06:01:03.144Z,-0.54
2023-01-18T06:03:30.851Z,-0.43
2023-01-18T06:05:59.209Z,-0.23
2023-01-18T06:08:27.224Z,0.32
2023-01-18T06:10:57.547Z,0.62
2023-01-18T06:13:28.048Z,0.73
2023-01-18T06:15:58.071Z,0.51
2023-01-18T06:18:29.027Z,0.49
2023-01-18T06:21:01.000Z,0.47
2023-01-18T06:23:30.781Z,0.77
2023-01-18T06:25:59.186Z,0.81
2023-01-18T06:28:30.229Z,0.96
2023-01-18T06:30:58.691Z,1.02
2023-01-18T06:33:26.315Z,0.87
2023-01-18T06:35:54.015Z,0.42
2023-01-18T06:38:21.697Z,-1.33
2023-01-18T06:40:49.370Z,-2.10
2023-01-18T06:43:16.943Z,-2.93
2023-01-18T06:45:44.701Z,-1.71
2023-01-18T06:48:12.367Z,-0.79
2023-01-18T06:50:40.039Z,-0.78
2023-01-18T06:53:07.606Z,-1.07
2023-01-18T06:55:35.234Z,-1.56
2023-01-18T06:58:03.027Z,-2.29
2023-01-18T07:00:30.696Z,-1.21
2023-01-18T07:02:58.726Z,-0.96
2023-01-18T07:05:26.547Z,-1.14
2023-01-18T07:07:54.174Z,-1.52
2023-01-18T07:10:21.828Z,-1.72
2023-01-18T07:12:50.919Z,-0.34
2023-01-18T07:15:22.879Z,0.02
2023-01-18T07:17:51.119Z,0.35
2023-01-18T07:20:19.920Z,0.46
2023-01-18T07:22:52.685Z,-0.07
2023-01-18T07:25:21.301Z,-0.58
2023-01-18T07:27:49.215Z,-0.74
2023-01-18T07:30:17.499Z,-0.64
2023-01-18T07:32:49.813Z,-1.32
2023-01-18T07:35:24.604Z,-2.84
2023-01-18T07:37:56.092Z,-3.56
2023-01-18T07:40:23.766Z,-2.76
2023-01-18T07:42:57.891Z,-2.26
2023-01-18T07:45:25.714Z,-1.93
2023-01-18T07:47:53.390Z,-1.33
2023-01-18T07:50:24.314Z,-0.14
2023-01-18T07:52:52.000Z,0.05
2023-01-18T07:55:21.640Z,0.37
2023-01-18T07:57:49.322Z,0.74
2023-01-18T08:00:17.636Z,0.92
2023-01-18T08:02:49.847Z,0.45
2023-01-18T08:05:20.993Z,0.41
2023-01-18T08:07:49.723Z,-1.88
2023-01-18T08:10:18.199Z,-1.19
2023-01-18T08:12:45.909Z,-0.30
2023-01-18T08:15:13.478Z,-0.63
2023-01-18T08:17:41.216Z,-0.25
2023-01-18T08:20:10.242Z,-0.24
2023-01-18T08:22:37.920Z,-0.98
2023-01-18T08:25:06.170Z,-0.32
2023-01-18T08:27:33.852Z,0.72
2023-01-18T08:30:01.435Z,1.14
2023-01-18T08:32:29.026Z,0.90
2023-01-18T08:34:57.200Z,-1.35
2023-01-18T08:37:24.880Z,-2.47
2023-01-18T08:39:52.595Z,-2.09
2023-01-18T08:42:20.280Z,-2.79
2023-01-18T08:44:48.438Z,-2.93
2023-01-18T08:47:16.111Z,-2.05
2023-01-18T08:49:43.739Z,-0.81
2023-01-18T08:52:11.426Z,0.55
2023-01-18T08:54:39.055Z,0.89
2023-01-18T08:57:08.057Z,1.41
2023-01-18T08:59:35.755Z,1.63
2023-01-18T09:02:03.649Z,1.75
2023-01-18T09:04:31.334Z,2.23
2023-01-18T09:06:58.951Z,2.58
2023-01-18T09:09:26.564Z,2.72
2023-01-18T09:11:56.109Z,1.18
2023-01-18T09:14:23.859Z,-0.99
2023-01-18T09:16:51.424Z,-0.93
2023-01-18T09:19:19.195Z,-0.13
2023-01-18T09:21:48.679Z,0.68
2023-01-18T09:24:16.692Z,0.79
2023-01-18T09:26:46.262Z,1.03
2023-01-18T09:29:13.923Z,1.25
2023-01-18T09:31:41.621Z,2.03
2023-01-18T09:34:19.160Z,2.26
2023-01-18T09:36:51.347Z,2.21
2023-01-18T09:39:20.597Z,3.11
2023-01-18T09:42:01.786Z,3.20
2023-01-18T09:44:38.652Z,2.93
2023-01-18T09:47:31.277Z,2.64
2023-01-18T09:50:14.720Z,2.99
2023-01-18T09:53:23.639Z,2.78
2023-01-18T09:56:50.332Z,-0.30
2023-01-18T09:59:40.590Z,-0.89
2023-01-18T10:02:25.679Z,-1.04
2023-01-18T10:05:01.227Z,0.17
2023-01-18T10:07:33.868Z,-0.03
2023-01-18T10:10:03.973Z,-0.20
2023-01-18T10:12:45.853Z,0.34
2023-01-18T10:15:29.378Z,1.01
2023-01-18T10:18:00.551Z,-0.57
2023-01-18T10:20:55.996Z,-0.79
2023-01-18T10:23:31.997Z,0.49
2023-01-18T10:26:09.509Z,-1.12
2023-01-18T10:29:21.228Z,-1.06
2023-01-18T10:32:08.289Z,1.47
2023-01-18T10:34:41.677Z,2.03
2023-01-18T10:37:16.608Z,2.50
2023-01-18T10:39:51.817Z,2.09
2023-01-18T10:42:29.655Z,3.20
2023-01-18T10:44:57.424Z,2.74
2023-01-18T10:47:25.137Z,3.70
2023-01-18T10:49:59.449Z,3.53
2023-01-18T10:52:31.498Z,4.03
2023-01-18T10:55:01.597Z,4.08
2023-01-18T10:57:37.620Z,4.43
2023-01-18T11:00:12.324Z,3.98
2023-01-18T11:02:40.527Z,4.30
2023-01-18T11:05:30.133Z,4.51
2023-01-18T11:08:11.468Z,4.69
2023-01-18T11:10:41.531Z,4.13
2023-01-18T11:13:27.227Z,3.96
2023-01-18T11:16:22.125Z,3.84
2023-01-18T11:19:03.449Z,4.12
2023-01-18T11:21:41.180Z,2.04
2023-01-18T11:24:17.808Z,0.81
2023-01-18T11:27:02.527Z,0.16
2023-01-18T11:29:41.520Z,-0.35
2023-01-18T11:32:30.284Z,-0.56
2023-01-18T11:35:02.812Z,-1.51
2023-01-18T11:37:37.128Z,-1.81
2023-01-18T11:40:27.827Z,-1.96
2023-01-18T11:43:27.814Z,-1.53
2023-01-18T11:46:21.329Z,-1.84
2023-01-18T11:48:56.155Z,-2.46
2023-01-18T11:51:38.813Z,-1.86
2023-01-18T11:54:30.548Z,-2.79
2023-01-18T11:56:59.772Z,-3.03
2023-01-18T11:59:43.642Z,-3.27
2023-01-18T12:02:30.912Z,-2.60
2023-01-18T12:05:29.271Z,-2.47
2023-01-18T12:08:24.429Z,-1.02
2023-01-18T12:11:18.679Z,1.03
2023-01-18T12:14:03.093Z,1.10
2023-01-18T12:16:44.566Z,1.72
2023-01-18T12:20:09.934Z,1.78
2023-01-18T12:23:05.573Z,-0.85
2023-01-18T12:25:38.926Z,-1.71
2023-01-18T12:28:45.700Z,-1.25
2023-01-18T12:31:28.242Z,-1.52
2023-01-18T12:34:18.662Z,-2.07
2023-01-18T12:37:36.946Z,-2.63
2023-01-18T12:40:13.207Z,-2.54
2023-01-18T12:43:15.784Z,-2.53
2023-01-18T12:46:16.657Z,-2.20
2023-01-18T12:48:55.254Z,-1.45
2023-01-18T12:51:27.043Z,0.13
2023-01-18T12:54:11.880Z,1.68
2023-01-18T12:56:44.853Z,0.68
2023-01-18T12:59:19.861Z,-0.97
2023-01-18T13:02:02.211Z,-1.73
2023-01-18T13:04:43.083Z,-2.57
2023-01-18T13:07:20.268Z,-2.44
2023-01-18T13:09:50.564Z,-2.52
2023-01-18T13:12:18.407Z,-2.69
2023-01-18T13:15:02.107Z,-2.49
2023-01-18T13:18:01.048Z,-1.49
2023-01-18T13:20:35.651Z,-0.54
2023-01-18T13:23:16.123Z,-1.50
2023-01-18T13:26:24.495Z,-2.12
2023-01-18T13:29:16.828Z,-1.64
2023-01-18T13:31:44.831Z,-2.48
2023-01-18T13:34:44.441Z,-1.06
2023-01-18T13:37:42.840Z,0.22
2023-01-18T13:40:36.362Z,0.92
2023-01-18T13:43:06.000Z,1.88
2023-01-18T13:46:08.769Z,-0.63
2023-01-18T13:48:56.371Z,-1.28
2023-01-18T13:51:39.397Z,-1.60
2023-01-18T13:54:09.989Z,-1.46
2023-01-18T13:56:39.776Z,-1.80
2023-01-18T13:59:23.319Z,-1.44
2023-01-18T14:01:51.292Z,-1.46
2023-01-18T14:04:31.930Z,-0.86
2023-01-18T14:07:03.923Z,-0.37
2023-01-18T14:09:42.833Z,-0.78
2023-01-18T14:12:11.885Z,-0.76
2023-01-18T14:14:59.318Z,-1.14
2023-01-18T14:17:27.653Z,-1.92
2023-01-18T14:20:41.656Z,-2.27
2023-01-18T14:23:44.489Z,-0.17
2023-01-18T14:26:19.334Z,0.59
2023-01-18T14:28:52.465Z,1.33
2023-01-18T14:31:30.618Z,1.51
2023-01-18T14:33:58.716Z,2.00
2023-01-18T14:36:28.633Z,1.12
2023-01-18T14:39:14.402Z,0.23
2023-01-18T14:41:49.119Z,0.39
2023-01-18T14:44:31.061Z,-0.04
2023-01-18T14:46:59.375Z,-1.44
2023-01-18T14:49:35.752Z,-1.85
2023-01-18T14:52:06.598Z,-1.14
2023-01-18T14:54:35.252Z,-1.41
2023-01-18T14:57:09.513Z,-0.26
2023-01-18T14:59:37.736Z,0.64
2023-01-18T15:02:22.555Z,0.43
2023-01-18T15:04:50.540Z,0.20
2023-01-18T15:07:33.828Z,1.59
2023-01-18T15:10:01.751Z,2.36
2023-01-18T15:12:32.698Z,2.98
2023-01-18T15:15:15.336Z,2.72
2023-01-18T15:17:43.082Z,3.09
2023-01-18T15:20:15.076Z,2.91
2023-01-18T15:22:43.193Z,2.66
2023-01-18T15:25:25.212Z,2.44
2023-01-18T15:27:54.187Z,1.47
2023-01-18T15:30:24.236Z,1.09
2023-01-18T15:32:57.862Z,0.78
2023-01-18T15:35:26.174Z,1.56
2023-01-18T15:37:54.033Z,1.43
2023-01-18T15:40:26.593Z,1.01
2023-01-18T15:43:01.520Z,1.54
2023-01-18T15:45:35.167Z,1.49
2023-01-18T15:48:14.568Z,1.11
2023-01-18T15:50:49.755Z,1.42
2023-01-18T15:53:48.915Z,1.36
2023-01-18T15:56:23.835Z,1.87
2023-01-18T15:58:55.808Z,1.83
2023-01-18T16:01:35.113Z,1.02
2023-01-18T16:04:19.939Z,1.47
2023-01-18T16:06:47.805Z,1.97
2023-01-18T16:09:16.147Z,1.83
2023-01-18T16:11:56.886Z,2.43
2023-01-18T16:14:35.590Z,2.66
2023-01-18T16:17:18.772Z,2.80
2023-01-18T16:19:53.197Z,2.29
2023-01-18T16:22:23.546Z,1.90
2023-01-18T16:25:01.927Z,1.43
2023-01-18T16:27:32.591Z,0.80
2023-01-18T16:30:18.401Z,1.17
2023-01-18T16:32:46.434Z,1.79
2023-01-18T16:35:23.474Z,2.24
2023-01-18T16:37:51.978Z,2.61
2023-01-18T16:40:23.215Z,2.78
2023-01-18T16:43:01.921Z,2.61
2023-01-18T16:45:35.674Z,2.71
2023-01-18T16:48:05.693Z,2.62
2023-01-18T16:50:33.363Z,2.79
2023-01-18T16:53:00.960Z,2.82
2023-01-18T16:55:28.558Z,2.86
2023-01-18T16:57:56.101Z,2.85
2023-01-18T17:00:30.467Z,2.83
2023-01-18T17:02:58.182Z,2.80
2023-01-18T17:05:25.833Z,2.78
2023-01-18T17:07:53.492Z,2.72
2023-01-18T17:10:38.454Z,2.71
2023-01-18T17:13:06.441Z,2.60
2023-01-18T17:15:34.823Z,2.58
2023-01-18T17:18:03.501Z,2.51
2023-01-18T17:20:31.357Z,2.53
2023-01-18T17:23:01.101Z,2.50
2023-01-18T17:25:29.374Z,2.42
2023-01-18T17:27:57.995Z,2.49
2023-01-18T17:30:25.744Z,2.48
2023-01-18T17:32:53.477Z,2.46
2023-01-18T17:35:23.585Z,2.43
2023-01-18T17:37:57.597Z,2.37
2023-01-18T17:40:40.037Z,2.14
2023-01-18T17:43:35.103Z,2.26
2023-01-18T17:46:06.201Z,2.22
2023-01-18T17:48:34.507Z,2.19
2023-01-18T17:51:06.668Z,2.00
2023-01-18T17:53:36.440Z,1.99
2023-01-18T17:56:13.037Z,1.92
2023-01-18T17:58:40.926Z,1.91
2023-01-18T18:01:12.201Z,1.81
2023-01-18T18:03:43.231Z,1.86
2023-01-18T18:06:12.674Z,1.82
2023-01-18T18:08:40.359Z,1.82
2023-01-18T18:11:10.435Z,1.70
2023-01-18T18:13:40.405Z,1.74
2023-01-18T18:16:13.825Z,1.32
2023-01-18T18:18:44.204Z,1.45
2023-01-18T18:21:11.860Z,1.40
2023-01-18T18:23:39.541Z,1.38
2023-01-18T18:26:07.459Z,1.20
2023-01-18T18:28:35.146Z,1.35
2023-01-18T18:31:03.042Z,1.35
2023-01-18T18:33:32.876Z,1.14
2023-01-18T18:36:01.439Z,0.83
2023-01-18T18:38:29.422Z,1.07
2023-01-18T18:41:03.945Z,1.13
2023-01-18T18:43:32.013Z,1.06
2023-01-18T18:45:59.758Z,0.89
2023-01-18T18:48:27.522Z,0.92
2023-01-18T18:50:55.570Z,0.85
2023-01-18T18:53:29.581Z,1.03
2023-01-18T18:56:09.145Z,1.02
2023-01-18T18:58:37.310Z,0.90
2023-01-18T19:01:06.187Z,1.01
2023-01-18T19:03:35.257Z,0.84
2023-01-18T19:06:02.999Z,0.89
2023-01-18T19:08:30.921Z,0.68
2023-01-18T19:10:58.543Z,0.70
2023-01-18T19:13:26.193Z,0.63
2023-01-18T19:15:55.152Z,0.51
2023-01-18T19:18:24.355Z,0.48
2023-01-18T19:20:52.056Z,0.33
2023-01-18T19:23:20.659Z,0.27
2023-01-18T19:25:48.978Z,0.27
2023-01-18T19:28:17.557Z,0.15
2023-01-18T19:30:45.550Z,0.28
2023-01-18T19:33:14.360Z,0.22
2023-01-18T19:35:45.729Z,-0.00
2023-01-18T19:38:13.630Z,-0.04
2023-01-18T19:40:41.232Z,0.40
2023-01-18T19:43:08.890Z,0.17
2023-01-18T19:45:37.799Z,0.48
2023-01-18T19:48:05.596Z,0.51
2023-01-18T19:50:33.704Z,0.40
2023-01-18T19:53:03.984Z,0.41
2023-01-18T19:55:31.700Z,0.34
2023-01-18T19:58:01.537Z,0.20
2023-01-18T20:00:30.442Z,0.32
2023-01-18T20:02:58.977Z,0.17
2023-01-18T20:05:27.385Z,-0.00
2023-01-18T20:07:54.980Z,0.16
2023-01-18T20:10:22.609Z,-0.08
2023-01-18T20:12:50.327Z,-0.01
2023-01-18T20:15:18.909Z,0.02
2023-01-18T20:17:46.509Z,0.07
2023-01-18T20:20:20.984Z,-0.22
2023-01-18T20:22:55.170Z,0.06
2023-01-18T20:25:22.737Z,0.16
2023-01-18T20:27:50.297Z,0.11
2023-01-18T20:30:17.927Z,0.12
2023-01-18T20:32:45.740Z,0.07
2023-01-18T20:35:13.304Z,0.02
2023-01-18T20:37:54.267Z,-0.00
2023-01-18T20:40:22.460Z,-0.11
2023-01-18T20:42:50.132Z,-0.11
2023-01-18T20:45:17.705Z,-0.02
2023-01-18T20:47:45.267Z,-0.09
2023-01-18T20:50:12.935Z,-0.05
2023-01-18T20:52:40.784Z,-0.05
2023-01-18T20:55:12.754Z,-0.12
2023-01-18T20:57:41.310Z,-0.24
2023-01-18T21:00:12.415Z,-0.39
2023-01-18T21:02:41.660Z,-0.28
2023-01-18T21:05:09.618Z,-0.25
2023-01-18T21:07:37.426Z,-0.46
2023-01-18T21:10:05.984Z,-0.47
2023-01-18T21:12:33.648Z,-0.59
2023-01-18T21:15:01.194Z,-0.58
2023-01-18T21:17:28.811Z,-0.34
2023-01-18T21:19:56.436Z,-0.30
2023-01-18T21:22:24.043Z,-0.26
2023-01-18T21:24:51.642Z,-0.33
2023-01-18T21:27:19.274Z,-0.29
2023-01-18T21:29:47.533Z,-0.27
2023-01-18T21:32:15.146Z,-0.50
2023-01-18T21:34:42.715Z,-0.54
2023-01-18T21:37:10.469Z,-0.71
2023-01-18T21:39:38.121Z,-1.10
2023-01-18T21:42:24.580Z,-1.25
2023-01-18T21:45:10.611Z,-0.98
2023-01-18T21:47:38.339Z,-0.79
2023-01-18T21:50:24.772Z,-0.84
2023-01-18T21:53:10.993Z,-1.02
2023-01-18T21:55:40.040Z,-1.18
2023-01-18T21:58:26.254Z,-0.94
2023-01-18T22:00:53.967Z,-1.17
2023-01-18T22:03:21.685Z,-0.94
2023-01-18T22:05:49.285Z,-1.16
2023-01-18T22:08:16.985Z,-1.26
2023-01-18T22:10:47.721Z,-1.33
2023-01-18T22:13:15.619Z,-1.15
2023-01-18T22:15:43.179Z,-1.28
2023-01-18T22:18:10.865Z,-1.18
2023-01-18T22:20:38.506Z,-1.38
2023-01-18T22:23:06.106Z,-1.62
2023-01-18T22:25:33.714Z,-1.53
2023-01-18T22:28:01.707Z,-1.38
2023-01-18T22:30:29.653Z,-1.24
2023-01-18T22:32:57.205Z,-1.19
2023-01-18T22:35:24.821Z,-1.11
2023-01-18T22:37:52.488Z,-1.21
2023-01-18T22:40:20.012Z,-0.99
2023-01-18T22:42:47.683Z,-1.14
2023-01-18T22:45:15.291Z,-1.18
2023-01-18T22:47:42.936Z,-1.61
2023-01-18T22:50:11.553Z,-1.47
2023-01-18T22:52:39.294Z,-1.70
2023-01-18T22:55:07.740Z,-1.43
2023-01-18T22:57:35.470Z,-1.66
2023-01-18T23:00:05.726Z,-1.53
2023-01-18T23:02:34.027Z,-1.46
2023-01-18T23:05:01.616Z,-1.13
2023-01-18T23:07:29.267Z,-1.01
2023-01-18T23:09:56.872Z,-1.13
2023-01-18T23:12:24.530Z,-1.00
2023-01-18T23:15:10.485Z,-0.96
2023-01-18T23:17:42.140Z,-1.08
2023-01-18T23:20:14.804Z,-0.97
2023-01-18T23:22:42.524Z,-1.09
2023-01-18T23:25:10.359Z,-1.38
2023-01-18T23:27:38.014Z,-1.17
2023-01-18T23:30:06.329Z,-1.07
2023-01-18T23:32:35.270Z,-0.99
2023-01-18T23:35:04.227Z,-1.13
2023-01-18T23:37:31.950Z,-1.44
2023-01-18T23:40:17.892Z,-1.53
2023-01-18T23:43:04.096Z,-1.39
2023-01-18T23:45:50.298Z,-1.27
2023-01-18T23:48:38.269Z,-1.31
2023-01-18T23:51:27.107Z,-1.47
2023-01-18T23:54:14.083Z,-1.68
2023-01-18T23:56:43.123Z,-1.71
2023-01-18T23:59:11.164Z,-1.32
